createdAt,value
2019-03-13T00:03:09.070Z,34.70
2019-03-13T00:06:25.092Z,34.80
2019-03-13T00:09:41.201Z,34.70
2019-03-13T00:12:56.713Z,34.70
2019-03-13T00:16:12.598Z,34.80
2019-03-13T00:19:28.023Z,34.80
2019-03-13T00:22:43.871Z,34.60
2019-03-13T00:25:59.220Z,34.60
2019-03-13T00:29:14.880Z,34.80
2019-03-13T00:32:30.877Z,34.80
2019-03-13T00:35:46.585Z,34.80
2019-03-13T00:39:02.871Z,34.70
2019-03-13T00:42:18.457Z,34.60
2019-03-13T00:45:34.151Z,34.50
2019-03-13T00:48:50.123Z,34.70
2019-03-13T00:52:06.085Z,34.60
2019-03-13T00:55:21.983Z,34.50
2019-03-13T00:58:37.974Z,34.50
2019-03-13T01:02:12.986Z,34.70
2019-03-13T01:05:33.057Z,34.70
2019-03-13T01:08:48.683Z,34.70
2019-03-13T01:12:04.777Z,34.60
2019-03-13T01:15:20.235Z,34.70
2019-03-13T01:18:35.486Z,34.50
2019-03-13T01:21:51.185Z,34.60
2019-03-13T01:25:05.436Z,34.70
2019-03-13T01:28:28.156Z,34.60
2019-03-13T01:32:02.685Z,34.50
2019-03-13T01:35:19.604Z,34.40
2019-03-13T01:38:35.749Z,34.50
2019-03-13T01:41:51.720Z,34.70
2019-03-13T01:45:07.297Z,34.70
2019-03-13T01:48:23.097Z,34.60
2019-03-13T01:51:39.073Z,34.60
2019-03-13T01:54:54.981Z,34.60
2019-03-13T01:58:08.627Z,34.50
2019-03-13T02:01:24.235Z,34.60
2019-03-13T02:04:40.248Z,34.70
2019-03-13T02:07:55.915Z,34.60
2019-03-13T02:11:11.155Z,34.40
2019-03-13T02:14:27.140Z,34.40
2019-03-13T02:17:40.841Z,34.60
2019-03-13T02:20:56.187Z,34.50
2019-03-13T02:24:12.083Z,34.60
2019-03-13T02:27:28.051Z,34.50
2019-03-13T02:30:41.659Z,34.60
2019-03-13T02:34:04.328Z,34.50
2019-03-13T02:37:20.105Z,34.50
2019-03-13T02:40:36.091Z,34.50
2019-03-13T02:43:51.805Z,34.50
2019-03-13T02:47:07.542Z,34.70
2019-03-13T02:50:23.526Z,34.70
2019-03-13T02:53:39.289Z,34.60
2019-03-13T02:56:52.928Z,34.40
2019-03-13T03:07:12.705Z,34.60
2019-03-13T03:10:26.942Z,34.40
2019-03-13T03:13:42.666Z,34.50
2019-03-13T03:16:56.298Z,34.60
2019-03-13T03:20:19.711Z,34.50
2019-03-13T03:23:35.532Z,34.60
2019-03-13T03:26:51.680Z,34.30
2019-03-13T03:30:07.383Z,34.40
2019-03-13T03:33:22.966Z,34.60
2019-03-13T03:36:38.686Z,34.50
2019-03-13T03:39:54.428Z,34.30
2019-03-13T03:43:10.310Z,34.30
2019-03-13T03:46:26.156Z,34.50
2019-03-13T03:49:42.188Z,34.50
2019-03-13T03:52:58.154Z,34.60
2019-03-13T03:56:14.189Z,34.60
2019-03-13T03:59:29.999Z,34.60
2019-03-13T04:02:45.748Z,34.60
2019-03-13T04:06:01.947Z,34.40
2019-03-13T04:09:17.984Z,34.60
2019-03-13T04:12:33.922Z,34.40
2019-03-13T04:15:49.645Z,34.40
2019-03-13T04:19:05.458Z,34.40
2019-03-13T04:22:21.612Z,34.60
2019-03-13T04:25:37.757Z,34.50
2019-03-13T04:28:53.655Z,34.60
2019-03-13T04:32:09.615Z,34.60
2019-03-13T04:35:25.360Z,34.70
2019-03-13T04:38:41.016Z,34.60
2019-03-13T04:41:56.251Z,34.60
2019-03-13T04:45:11.769Z,34.70
2019-03-13T04:48:27.159Z,34.70
2019-03-13T04:51:42.845Z,34.70
2019-03-13T04:54:58.829Z,34.70
2019-03-13T04:58:14.127Z,34.60
2019-03-13T05:01:29.982Z,34.40
2019-03-13T05:04:45.277Z,34.40
2019-03-13T05:07:48.580Z,34.50
2019-03-13T05:11:11.263Z,34.70
2019-03-13T05:14:33.966Z,34.60
2019-03-13T05:17:49.936Z,34.50
2019-03-13T05:21:05.904Z,34.50
2019-03-13T05:24:21.877Z,34.60
2019-03-13T05:27:37.101Z,34.60
2019-03-13T05:30:53.240Z,34.60
2019-03-13T05:34:08.766Z,34.50
2019-03-13T05:37:24.728Z,34.50
2019-03-13T05:40:40.743Z,34.50
2019-03-13T05:43:56.604Z,34.40
2019-03-13T05:47:12.402Z,34.60
2019-03-13T05:50:31.348Z,34.60
2019-03-13T05:53:45.969Z,34.50
2019-03-13T05:57:01.529Z,34.50
2019-03-13T06:00:19.237Z,34.40
2019-03-13T06:03:34.705Z,34.40
2019-03-13T06:06:50.545Z,34.50
2019-03-13T06:10:05.399Z,34.20
2019-03-13T06:13:20.978Z,34.30
2019-03-13T06:16:36.297Z,34.20
2019-03-13T06:19:51.827Z,34.40
2019-03-13T06:23:07.933Z,34.20
2019-03-13T06:26:23.823Z,34.20
2019-03-13T06:29:39.779Z,34.20
2019-03-13T06:32:55.688Z,34.20
2019-03-13T06:36:11.756Z,34.20
2019-03-13T06:39:26.960Z,34.40
2019-03-13T06:42:43.090Z,34.20
2019-03-13T06:45:59.228Z,34.20
2019-03-13T06:49:14.496Z,34.50
2019-03-13T06:52:31.790Z,34.30
2019-03-13T06:55:47.526Z,34.20
2019-03-13T06:59:05.229Z,34.20
2019-03-13T07:02:22.448Z,34.20
2019-03-13T07:05:57.493Z,34.40
2019-03-13T07:09:32.287Z,34.40
2019-03-13T07:12:52.220Z,34.40
2019-03-13T07:16:27.352Z,34.40
2019-03-13T07:19:44.864Z,34.50
2019-03-13T07:23:06.658Z,34.40
2019-03-13T07:30:28.244Z,34.00
2019-03-13T07:34:03.476Z,34.30
2019-03-13T07:37:20.696Z,34.50
2019-03-13T07:40:37.556Z,34.50
2019-03-13T07:43:54.620Z,34.50
2019-03-13T07:47:14.137Z,34.30
2019-03-13T07:50:48.615Z,34.30
2019-03-13T07:54:30.490Z,34.30
2019-03-13T07:58:05.483Z,34.40
2019-03-13T08:05:04.401Z,34.40
2019-03-13T08:08:39.164Z,34.50
2019-03-13T08:11:59.321Z,34.30
2019-03-13T08:15:33.839Z,34.10
2019-03-13T08:22:23.286Z,34.10
2019-03-13T08:25:58.476Z,34.10
2019-03-13T08:29:33.260Z,34.00
2019-03-13T08:32:50.247Z,34.20
2019-03-13T08:36:07.210Z,34.20
2019-03-13T08:39:41.609Z,34.00
2019-03-13T08:43:16.301Z,34.10
2019-03-13T08:46:33.826Z,34.30
2019-03-13T08:49:50.845Z,34.40
2019-03-13T08:53:06.520Z,34.00
2019-03-13T08:56:23.625Z,34.40
2019-03-13T08:59:44.385Z,34.50
2019-03-13T09:03:04.759Z,34.40
2019-03-13T09:06:21.911Z,34.30
2019-03-13T09:09:44.529Z,34.40
2019-03-13T09:16:34.775Z,34.50
2019-03-13T09:19:54.772Z,34.40
2019-03-13T09:23:30.390Z,34.20
2019-03-13T09:27:07.945Z,34.20
2019-03-13T09:30:49.652Z,34.20
2019-03-13T09:34:25.621Z,34.20
2019-03-13T09:45:01.274Z,34.10
2019-03-13T09:48:36.244Z,34.20
2019-03-13T09:51:53.680Z,34.10
2019-03-13T09:55:28.115Z,34.90
2019-03-13T09:58:47.880Z,34.30
2019-03-13T10:02:07.977Z,34.30
2019-03-13T10:05:27.785Z,34.10
2019-03-13T10:08:44.809Z,34.10
2019-03-13T10:15:43.616Z,34.30
2019-03-13T10:19:00.531Z,34.20
2019-03-13T10:22:35.881Z,34.40
2019-03-13T10:26:10.345Z,34.40
2019-03-13T10:29:27.519Z,34.40
2019-03-13T10:39:59.003Z,34.30
2019-03-13T10:43:34.228Z,34.30
2019-03-13T10:47:08.724Z,34.20
2019-03-13T10:50:28.885Z,34.20
2019-03-13T10:53:46.015Z,34.20
2019-03-13T10:57:20.388Z,34.20
2019-03-13T11:07:48.596Z,33.90
2019-03-13T11:11:05.635Z,34.00
2019-03-13T11:14:44.109Z,34.10
2019-03-13T11:18:18.783Z,33.90
2019-03-13T11:21:53.463Z,33.90
2019-03-13T11:25:14.205Z,34.00
2019-03-13T11:28:49.559Z,33.90
2019-03-13T11:32:25.547Z,34.10
2019-03-13T11:39:36.529Z,33.90
2019-03-13T11:43:11.827Z,34.00
2019-03-13T11:53:44.288Z,33.80
2019-03-13T11:57:19.187Z,34.00
2019-03-13T12:00:38.686Z,33.80
2019-03-13T12:04:00.799Z,33.80
2019-03-13T12:07:36.009Z,33.90
2019-03-13T12:11:11.415Z,34.00
2019-03-13T12:14:28.474Z,33.90
2019-03-13T12:18:02.934Z,33.80
2019-03-13T12:21:22.701Z,33.80
2019-03-13T12:24:57.259Z,34.00
2019-03-13T12:28:33.424Z,34.00
2019-03-13T12:32:08.019Z,34.00
2019-03-13T12:35:43.486Z,34.10
2019-03-13T12:39:17.909Z,33.90
2019-03-13T12:42:52.606Z,34.10
2019-03-13T12:46:28.756Z,33.90
2019-03-13T12:50:03.477Z,34.00
2019-03-13T12:57:07.336Z,34.00
2019-03-13T13:00:42.061Z,34.20
2019-03-13T13:14:19.645Z,33.80
2019-03-13T13:18:01.525Z,34.00
2019-03-13T13:21:17.606Z,33.80
2019-03-13T13:24:33.696Z,34.00
2019-03-13T13:27:49.594Z,34.00
2019-03-13T13:31:05.025Z,33.80
2019-03-13T13:34:20.867Z,33.90
2019-03-13T13:37:36.984Z,33.70
2019-03-13T13:40:52.852Z,33.90
2019-03-13T13:44:09.035Z,33.70
2019-03-13T13:47:24.948Z,33.80
2019-03-13T13:50:42.049Z,33.80
2019-03-13T13:53:57.898Z,33.70
2019-03-13T13:57:13.116Z,33.70
2019-03-13T14:00:25.886Z,33.90
2019-03-13T14:03:41.447Z,33.70
2019-03-13T14:06:57.156Z,33.30
2019-03-13T14:10:13.203Z,33.80
2019-03-13T14:13:29.421Z,33.80
2019-03-13T14:16:45.342Z,33.50
2019-03-13T14:20:00.622Z,33.70
2019-03-13T14:23:16.788Z,33.70
2019-03-13T14:26:32.915Z,33.50
2019-03-13T14:29:48.264Z,33.60
2019-03-13T14:33:03.895Z,33.60
2019-03-13T14:36:19.860Z,33.60
2019-03-13T14:39:35.887Z,33.60
2019-03-13T14:42:52.016Z,33.60
2019-03-13T14:46:08.237Z,33.30
2019-03-13T14:49:23.625Z,33.50
2019-03-13T14:52:39.822Z,33.40
2019-03-13T14:55:56.047Z,33.40
2019-03-13T14:59:09.835Z,33.40
2019-03-13T15:02:25.269Z,33.40
2019-03-13T15:05:41.474Z,33.00
2019-03-13T15:09:00.133Z,33.00
2019-03-13T15:12:17.100Z,33.00
2019-03-13T15:15:32.399Z,33.00
2019-03-13T15:18:48.657Z,33.10
2019-03-13T15:22:04.637Z,32.80
2019-03-13T15:25:21.022Z,33.00
2019-03-13T15:32:24.173Z,32.20
2019-03-13T15:35:42.153Z,32.90
2019-03-13T15:38:58.055Z,33.30
2019-03-13T15:42:14.092Z,33.00
2019-03-13T15:45:30.424Z,33.80
2019-03-13T15:48:46.793Z,33.20
2019-03-13T15:52:02.180Z,33.30
2019-03-13T15:55:18.533Z,33.10
2019-03-13T15:58:37.375Z,33.40
2019-03-13T16:01:53.699Z,33.30
2019-03-13T16:05:09.714Z,33.20
2019-03-13T16:08:25.089Z,33.20
2019-03-13T16:11:42.378Z,33.30
2019-03-13T16:14:58.297Z,33.30
2019-03-13T16:18:14.429Z,33.10
2019-03-13T16:21:30.227Z,33.40
2019-03-13T16:24:46.290Z,33.30
2019-03-13T16:28:02.577Z,33.30
2019-03-13T16:31:18.837Z,33.00
2019-03-13T16:34:34.772Z,33.40
2019-03-13T16:37:50.316Z,33.10
2019-03-13T16:41:09.429Z,33.50
2019-03-13T16:44:25.614Z,33.40
2019-03-13T16:47:44.832Z,33.50
2019-03-13T16:50:58.710Z,33.50
2019-03-13T16:54:14.920Z,33.40
2019-03-13T16:57:30.770Z,33.50
2019-03-13T17:00:46.582Z,33.50
2019-03-13T17:04:02.541Z,33.80
2019-03-13T17:07:18.056Z,33.70
2019-03-13T17:10:33.953Z,33.80
2019-03-13T17:13:37.495Z,34.00
2019-03-13T17:17:00.410Z,33.90
2019-03-13T17:20:42.672Z,33.90
2019-03-13T17:23:58.786Z,33.70
2019-03-13T17:27:02.244Z,33.80
2019-03-13T17:34:00.066Z,33.50
2019-03-13T17:37:17.305Z,33.60
2019-03-13T17:40:33.341Z,33.40
2019-03-13T17:43:49.482Z,33.20
2019-03-13T17:47:05.468Z,33.50
2019-03-13T17:50:21.687Z,33.40
2019-03-13T17:53:37.577Z,33.30
2019-03-13T17:56:53.386Z,33.30
2019-03-13T18:00:09.361Z,33.50
2019-03-13T18:03:25.397Z,33.40
2019-03-13T18:06:40.846Z,33.70
2019-03-13T18:09:56.985Z,33.50
2019-03-13T18:13:13.074Z,33.70
2019-03-13T18:16:29.083Z,33.60
2019-03-13T18:19:44.444Z,33.70
2019-03-13T18:23:00.489Z,33.80
2019-03-13T18:26:15.813Z,33.90
2019-03-13T18:29:38.679Z,33.70
2019-03-13T18:32:42.331Z,33.90
2019-03-13T18:35:47.131Z,33.90
2019-03-13T18:39:09.959Z,33.80
2019-03-13T18:42:25.537Z,33.60
2019-03-13T18:45:41.800Z,33.80
2019-03-13T18:48:57.668Z,33.70
2019-03-13T18:52:13.703Z,33.50
2019-03-13T18:55:29.553Z,33.60
2019-03-13T18:58:45.199Z,34.00
2019-03-13T19:02:01.130Z,34.10
2019-03-13T19:05:17.114Z,33.90
2019-03-13T19:11:49.314Z,34.20
2019-03-13T19:15:31.514Z,34.00
2019-03-13T19:18:34.890Z,34.20
2019-03-13T19:21:57.743Z,34.10
2019-03-13T19:25:20.564Z,34.20
2019-03-13T19:28:36.679Z,34.00
2019-03-13T19:31:52.126Z,34.00
2019-03-13T19:35:07.984Z,34.00
2019-03-13T19:38:23.488Z,34.10
2019-03-13T19:41:39.693Z,33.90
2019-03-13T19:44:55.694Z,34.10
2019-03-13T19:48:11.766Z,34.10
2019-03-13T19:51:27.955Z,34.20
2019-03-13T19:54:46.745Z,33.90
2019-03-13T19:58:02.184Z,34.00
2019-03-13T20:04:47.372Z,33.80
2019-03-13T20:07:56.505Z,33.70
2019-03-13T20:11:12.778Z,34.00
2019-03-13T20:14:26.577Z,34.00
2019-03-13T20:17:49.452Z,34.00
2019-03-13T20:21:04.866Z,34.10
2019-03-13T20:24:20.461Z,34.00
2019-03-13T20:27:35.784Z,34.00
2019-03-13T20:30:51.128Z,34.00
2019-03-13T20:34:07.170Z,33.90
2019-03-13T20:37:23.349Z,33.90
2019-03-13T20:40:39.596Z,34.00
2019-03-13T20:43:55.522Z,33.90
2019-03-13T20:47:11.458Z,34.00
2019-03-13T20:50:15.097Z,33.90
2019-03-13T20:53:37.917Z,34.10
2019-03-13T20:57:00.678Z,33.90
2019-03-13T21:00:17.868Z,34.00
2019-03-13T21:03:33.404Z,34.00
2019-03-13T21:06:50.093Z,34.20
2019-03-13T21:10:08.911Z,34.20
2019-03-13T21:13:24.384Z,34.00
2019-03-13T21:16:38.242Z,34.10
2019-03-13T21:19:55.337Z,34.00
2019-03-13T21:22:58.760Z,34.10
2019-03-13T21:26:21.528Z,34.30
2019-03-13T21:29:37.834Z,34.00
2019-03-13T21:32:53.958Z,34.20
2019-03-13T21:36:10.187Z,34.00
2019-03-13T21:39:25.482Z,34.10
2019-03-13T21:42:42.108Z,33.20
2019-03-13T21:49:27.173Z,33.90
2019-03-13T21:52:42.646Z,34.00
2019-03-13T21:55:58.317Z,34.40
2019-03-13T21:59:14.140Z,33.60
2019-03-13T22:02:17.402Z,33.70
2019-03-13T22:05:26.081Z,33.90
2019-03-13T22:08:45.200Z,33.90
2019-03-13T22:12:07.886Z,33.60
2019-03-13T22:15:23.388Z,33.80
2019-03-13T22:18:26.630Z,33.70
2019-03-13T22:21:49.324Z,33.80
2019-03-13T22:25:04.844Z,33.80
2019-03-13T22:28:20.536Z,33.80
2019-03-13T22:31:36.533Z,33.60
2019-03-13T22:34:52.387Z,33.10
2019-03-13T22:38:08.409Z,33.80
2019-03-13T22:41:24.437Z,33.50
2019-03-13T22:44:40.149Z,33.50
2019-03-13T22:47:55.456Z,33.60
2019-03-13T22:51:11.553Z,33.80
2019-03-13T22:54:26.944Z,33.80
2019-03-13T22:57:42.965Z,33.50
2019-03-13T23:00:58.607Z,33.50
2019-03-13T23:04:14.648Z,33.60
2019-03-13T23:07:32.430Z,33.50
2019-03-13T23:10:47.668Z,33.40
2019-03-13T23:14:02.950Z,33.50
2019-03-13T23:17:18.840Z,33.70
2019-03-13T23:20:34.036Z,33.50
2019-03-13T23:23:49.929Z,33.70
2019-03-13T23:27:05.884Z,33.50
2019-03-13T23:30:19.448Z,33.70
2019-03-13T23:33:42.150Z,33.50
2019-03-13T23:36:58.178Z,33.60
2019-03-13T23:40:14.166Z,33.50
2019-03-13T23:43:30.050Z,33.50
2019-03-13T23:46:45.536Z,33.50
2019-03-13T23:53:12.371Z,33.50
2019-03-13T23:56:35.055Z,33.70
2019-03-13T23:59:57.745Z,33.40
